sensor_id;sensor_type;location;lat;lon;timestamp;temperature;humidity
19263;DHT22;9765;52.354;20.884;2022-07-04T03:49:30;17.60;99.90
19263;DHT22;9765;52.354;20.884;2022-07-04T03:51:57;18.00;99.90
19263;DHT22;9765;52.354;20.884;2022-07-04T03:54:23;17.70;99.90
19263;DHT22;9765;52.354;20.884;2022-07-04T03:56:50;17.90;99.90
19263;DHT22;9765;52.354;20.884;2022-07-04T03:59:17;18.10;99.90
19263;DHT22;9765;52.354;20.884;2022-07-04T04:01:44;18.20;99.90
19263;DHT22;9765;52.354;20.884;2022-07-04T04:04:11;18.80;99.90
19263;DHT22;9765;52.354;20.884;2022-07-04T04:06:56;18.60;99.90
19263;DHT22;9765;52.354;20.884;2022-07-04T04:09:23;18.80;99.90
19263;DHT22;9765;52.354;20.884;2022-07-04T04:11:50;18.90;99.90
19263;DHT22;9765;52.354;20.884;2022-07-04T04:14:17;19.00;99.90
19263;DHT22;9765;52.354;20.884;2022-07-04T04:16:43;19.20;99.90
19263;DHT22;9765;52.354;20.884;2022-07-04T04:19:11;19.30;99.90
19263;DHT22;9765;52.354;20.884;2022-07-04T04:21:38;19.40;99.90
19263;DHT22;9765;52.354;20.884;2022-07-04T04:24:06;19.60;99.90
19263;DHT22;9765;52.354;20.884;2022-07-04T04:26:34;19.70;99.90
19263;DHT22;9765;52.354;20.884;2022-07-04T04:29:00;19.80;99.90
19263;DHT22;9765;52.354;20.884;2022-07-04T04:31:27;20.00;99.90
19263;DHT22;9765;52.354;20.884;2022-07-04T04:33:54;20.10;99.90
19263;DHT22;9765;52.354;20.884;2022-07-04T04:36:20;20.30;99.90
19263;DHT22;9765;52.354;20.884;2022-07-04T04:38:47;20.50;99.90
19263;DHT22;9765;52.354;20.884;2022-07-04T04:41:15;20.70;99.90
19263;DHT22;9765;52.354;20.884;2022-07-04T04:43:42;20.80;99.90
19263;DHT22;9765;52.354;20.884;2022-07-04T04:46:09;21.00;99.90
19263;DHT22;9765;52.354;20.884;2022-07-04T04:48:36;21.20;99.90
19263;DHT22;9765;52.354;20.884;2022-07-04T04:51:03;21.40;99.90
19263;DHT22;9765;52.354;20.884;2022-07-04T04:53:30;22.00;99.90
19263;DHT22;9765;52.354;20.884;2022-07-04T04:55:56;22.20;99.90
19263;DHT22;9765;52.354;20.884;2022-07-04T04:58:25;21.90;99.90
19263;DHT22;9765;52.354;20.884;2022-07-04T05:00:51;22.10;99.90
19263;DHT22;9765;52.354;20.884;2022-07-04T05:03:18;22.40;99.90
19263;DHT22;9765;52.354;20.884;2022-07-04T05:05:45;22.60;99.90
19263;DHT22;9765;52.354;20.884;2022-07-04T05:08:13;22.80;99.90
19263;DHT22;9765;52.354;20.884;2022-07-04T05:10:40;23.10;99.90
19263;DHT22;9765;52.354;20.884;2022-07-04T05:13:06;23.30;99.90
19263;DHT22;9765;52.354;20.884;2022-07-04T05:15:34;23.40;99.90
19263;DHT22;9765;52.354;20.884;2022-07-04T05:18:01;23.70;99.90
19263;DHT22;9765;52.354;20.884;2022-07-04T05:20:28;23.80;99.90
19263;DHT22;9765;52.354;20.884;2022-07-04T05:22:54;24.00;99.90
19263;DHT22;9765;52.354;20.884;2022-07-04T05:25:21;24.00;99.90
19263;DHT22;9765;52.354;20.884;2022-07-04T05:27:48;24.20;99.90
19263;DHT22;9765;52.354;20.884;2022-07-04T05:30:14;24.00;99.90
19263;DHT22;9765;52.354;20.884;2022-07-04T05:32:42;24.20;99.90
19263;DHT22;9765;52.354;20.884;2022-07-04T05:35:09;24.40;99.90
19263;DHT22;9765;52.354;20.884;2022-07-04T05:37:36;24.50;99.90
19263;DHT22;9765;52.354;20.884;2022-07-04T05:40:03;24.80;99.90
19263;DHT22;9765;52.354;20.884;2022-07-04T05:42:30;25.00;99.90
19263;DHT22;9765;52.354;20.884;2022-07-04T05:44:56;25.00;99.90
19263;DHT22;9765;52.354;20.884;2022-07-04T05:47:26;25.00;99.90
19263;DHT22;9765;52.354;20.884;2022-07-04T05:49:54;25.00;99.90
19263;DHT22;9765;52.354;20.884;2022-07-04T05:52:20;25.10;99.90
19263;DHT22;9765;52.354;20.884;2022-07-04T05:54:47;25.10;99.90
19263;DHT22;9765;52.354;20.884;2022-07-04T05:57:14;24.90;99.90
19263;DHT22;9765;52.354;20.884;2022-07-04T05:59:41;24.90;99.90
19263;DHT22;9765;52.354;20.884;2022-07-04T06:02:08;25.10;99.90
19263;DHT22;9765;52.354;20.884;2022-07-04T06:04:34;25.10;99.90
19263;DHT22;9765;52.354;20.884;2022-07-04T06:07:03;25.20;99.90
19263;DHT22;9765;52.354;20.884;2022-07-04T06:09:29;25.30;99.90
19263;DHT22;9765;52.354;20.884;2022-07-04T06:11:56;25.20;99.90
19263;DHT22;9765;52.354;20.884;2022-07-04T06:14:23;25.00;99.90
19263;DHT22;9765;52.354;20.884;2022-07-04T06:16:49;25.00;99.90
19263;DHT22;9765;52.354;20.884;2022-07-04T06:19:18;25.00;99.90
19263;DHT22;9765;52.354;20.884;2022-07-04T06:21:47;25.10;99.90
19263;DHT22;9765;52.354;20.884;2022-07-04T06:24:15;25.30;99.90
19263;DHT22;9765;52.354;20.884;2022-07-04T06:26:42;25.40;99.90
19263;DHT22;9765;52.354;20.884;2022-07-04T06:29:08;25.60;99.90
19263;DHT22;9765;52.354;20.884;2022-07-04T06:31:35;25.90;99.90
19263;DHT22;9765;52.354;20.884;2022-07-04T06:34:02;26.10;99.90
19263;DHT22;9765;52.354;20.884;2022-07-04T06:36:46;26.10;99.90
19263;DHT22;9765;52.354;20.884;2022-07-04T06:39:14;25.70;99.90
19263;DHT22;9765;52.354;20.884;2022-07-04T06:41:41;25.60;99.90
19263;DHT22;9765;52.354;20.884;2022-07-04T06:44:07;25.50;99.90
19263;DHT22;9765;52.354;20.884;2022-07-04T06:46:34;25.30;99.90
19263;DHT22;9765;52.354;20.884;2022-07-04T06:49:00;25.20;99.90
19263;DHT22;9765;52.354;20.884;2022-07-04T06:51:27;25.10;99.90
19263;DHT22;9765;52.354;20.884;2022-07-04T06:53:54;25.10;99.90
19263;DHT22;9765;52.354;20.884;2022-07-04T06:56:22;25.00;99.90
19263;DHT22;9765;52.354;20.884;2022-07-04T06:58:48;25.10;99.90
19263;DHT22;9765;52.354;20.884;2022-07-04T07:01:15;25.50;99.90
19263;DHT22;9765;52.354;20.884;2022-07-04T07:03:42;25.80;99.90
19263;DHT22;9765;52.354;20.884;2022-07-04T07:06:09;25.90;99.90
19263;DHT22;9765;52.354;20.884;2022-07-04T07:08:35;26.10;99.90
19263;DHT22;9765;52.354;20.884;2022-07-04T07:11:02;26.50;99.90
19263;DHT22;9765;52.354;20.884;2022-07-04T07:13:41;26.70;99.90
19263;DHT22;9765;52.354;20.884;2022-07-04T07:16:08;26.70;99.90
19263;DHT22;9765;52.354;20.884;2022-07-04T07:18:35;27.00;99.90
19263;DHT22;9765;52.354;20.884;2022-07-04T07:21:01;26.90;99.90
19263;DHT22;9765;52.354;20.884;2022-07-04T07:23:28;27.00;99.90
19263;DHT22;9765;52.354;20.884;2022-07-04T07:25:55;26.90;99.90
19263;DHT22;9765;52.354;20.884;2022-07-04T07:28:21;26.90;99.90
19263;DHT22;9765;52.354;20.884;2022-07-04T07:30:49;26.80;99.90
19263;DHT22;9765;52.354;20.884;2022-07-04T07:33:16;26.70;99.90
19263;DHT22;9765;52.354;20.884;2022-07-04T07:35:43;26.70;99.90
19263;DHT22;9765;52.354;20.884;2022-07-04T07:38:09;26.80;99.90
19263;DHT22;9765;52.354;20.884;2022-07-04T07:40:36;26.80;99.90
19263;DHT22;9765;52.354;20.884;2022-07-04T07:43:03;26.70;99.90
19263;DHT22;9765;52.354;20.884;2022-07-04T07:45:29;26.90;99.90
19263;DHT22;9765;52.354;20.884;2022-07-04T07:47:57;27.20;99.90
19263;DHT22;9765;52.354;20.884;2022-07-04T07:50:24;27.10;99.90
19263;DHT22;9765;52.354;20.884;2022-07-04T07:52:50;26.90;99.90
19263;DHT22;9765;52.354;20.884;2022-07-04T07:55:17;27.20;99.90
19263;DHT22;9765;52.354;20.884;2022-07-04T07:57:43;27.30;99.90
19263;DHT22;9765;52.354;20.884;2022-07-04T08:00:11;27.60;99.90
19263;DHT22;9765;52.354;20.884;2022-07-04T08:02:38;28.10;99.90
19263;DHT22;9765;52.354;20.884;2022-07-04T08:05:25;28.10;99.90
19263;DHT22;9765;52.354;20.884;2022-07-04T08:07:52;28.30;99.90
19263;DHT22;9765;52.354;20.884;2022-07-04T08:10:19;28.50;99.90
19263;DHT22;9765;52.354;20.884;2022-07-04T08:12:45;28.40;99.90
19263;DHT22;9765;52.354;20.884;2022-07-04T08:15:12;28.30;99.90
19263;DHT22;9765;52.354;20.884;2022-07-04T08:17:39;28.60;99.90
19263;DHT22;9765;52.354;20.884;2022-07-04T08:20:06;28.80;99.90
19263;DHT22;9765;52.354;20.884;2022-07-04T08:22:34;28.60;99.90
19263;DHT22;9765;52.354;20.884;2022-07-04T08:25:01;28.40;99.90
19263;DHT22;9765;52.354;20.884;2022-07-04T08:27:28;28.40;99.90
19263;DHT22;9765;52.354;20.884;2022-07-04T08:29:55;28.30;99.90
19263;DHT22;9765;52.354;20.884;2022-07-04T08:32:21;27.70;99.90
19263;DHT22;9765;52.354;20.884;2022-07-04T08:34:48;27.70;99.90
19263;DHT22;9765;52.354;20.884;2022-07-04T08:37:15;27.90;99.90
19263;DHT22;9765;52.354;20.884;2022-07-04T08:39:43;27.80;99.90
19263;DHT22;9765;52.354;20.884;2022-07-04T08:42:12;28.00;99.90
19263;DHT22;9765;52.354;20.884;2022-07-04T08:44:46;28.30;99.90
19263;DHT22;9765;52.354;20.884;2022-07-04T08:47:17;28.10;99.90
19263;DHT22;9765;52.354;20.884;2022-07-04T08:49:48;28.20;99.90
19263;DHT22;9765;52.354;20.884;2022-07-04T08:52:18;28.30;99.90
19263;DHT22;9765;52.354;20.884;2022-07-04T08:54:53;28.40;99.90
19263;DHT22;9765;52.354;20.884;2022-07-04T08:57:38;28.40;99.90
19263;DHT22;9765;52.354;20.884;2022-07-04T09:00:23;28.30;99.90
19263;DHT22;9765;52.354;20.884;2022-07-04T09:02:49;28.20;99.90
19263;DHT22;9765;52.354;20.884;2022-07-04T09:05:16;28.10;99.90
19263;DHT22;9765;52.354;20.884;2022-07-04T09:07:44;28.10;99.90
19263;DHT22;9765;52.354;20.884;2022-07-04T09:10:13;28.10;99.90
19263;DHT22;9765;52.354;20.884;2022-07-04T09:12:40;28.20;99.90
19263;DHT22;9765;52.354;20.884;2022-07-04T09:15:08;28.50;99.90
19263;DHT22;9765;52.354;20.884;2022-07-04T09:17:35;28.80;99.90
19263;DHT22;9765;52.354;20.884;2022-07-04T09:20:15;28.90;99.90
19263;DHT22;9765;52.354;20.884;2022-07-04T09:22:42;29.30;99.90
19263;DHT22;9765;52.354;20.884;2022-07-04T09:25:09;29.60;99.90
19263;DHT22;9765;52.354;20.884;2022-07-04T09:27:43;29.80;99.90
19263;DHT22;9765;52.354;20.884;2022-07-04T09:30:11;29.80;99.90
19263;DHT22;9765;52.354;20.884;2022-07-04T09:32:39;30.00;99.90
19263;DHT22;9765;52.354;20.884;2022-07-04T09:35:08;30.00;99.90
19263;DHT22;9765;52.354;20.884;2022-07-04T09:37:39;29.80;99.90
19263;DHT22;9765;52.354;20.884;2022-07-04T09:40:10;29.60;99.90
19263;DHT22;9765;52.354;20.884;2022-07-04T09:42:38;29.70;99.90
19263;DHT22;9765;52.354;20.884;2022-07-04T09:45:09;29.80;99.90
19263;DHT22;9765;52.354;20.884;2022-07-04T09:47:38;29.60;99.90
19263;DHT22;9765;52.354;20.884;2022-07-04T09:50:07;29.50;99.90
19263;DHT22;9765;52.354;20.884;2022-07-04T09:52:45;29.50;99.90
19263;DHT22;9765;52.354;20.884;2022-07-04T09:55:12;29.40;99.90
19263;DHT22;9765;52.354;20.884;2022-07-04T09:57:46;29.50;99.90
19263;DHT22;9765;52.354;20.884;2022-07-04T10:00:24;29.60;99.90
19263;DHT22;9765;52.354;20.884;2022-07-04T10:02:53;29.70;99.90
19263;DHT22;9765;52.354;20.884;2022-07-04T10:05:22;29.70;99.90
19263;DHT22;9765;52.354;20.884;2022-07-04T10:07:49;29.80;99.90
19263;DHT22;9765;52.354;20.884;2022-07-04T10:10:27;29.90;99.90
19263;DHT22;9765;52.354;20.884;2022-07-04T10:12:56;29.90;99.90
19263;DHT22;9765;52.354;20.884;2022-07-04T10:15:24;30.00;99.90
19263;DHT22;9765;52.354;20.884;2022-07-04T10:17:51;30.10;99.90
19263;DHT22;9765;52.354;20.884;2022-07-04T10:20:18;30.40;99.90
19263;DHT22;9765;52.354;20.884;2022-07-04T10:22:46;30.50;99.90
19263;DHT22;9765;52.354;20.884;2022-07-04T10:25:13;30.40;99.90
19263;DHT22;9765;52.354;20.884;2022-07-04T10:27:40;30.50;99.90
19263;DHT22;9765;52.354;20.884;2022-07-04T10:30:10;30.40;99.90
19263;DHT22;9765;52.354;20.884;2022-07-04T10:32:41;30.50;99.90
19263;DHT22;9765;52.354;20.884;2022-07-04T10:35:13;30.60;99.90
19263;DHT22;9765;52.354;20.884;2022-07-04T10:37:58;30.50;99.90
19263;DHT22;9765;52.354;20.884;2022-07-04T10:40:43;30.70;99.90
19263;DHT22;9765;52.354;20.884;2022-07-04T10:46:33;30.60;99.90
19263;DHT22;9765;52.354;20.884;2022-07-04T10:49:03;30.70;99.90
19263;DHT22;9765;52.354;20.884;2022-07-04T10:51:41;30.80;99.90
19263;DHT22;9765;52.354;20.884;2022-07-04T10:54:12;30.80;99.90
19263;DHT22;9765;52.354;20.884;2022-07-04T10:56:47;30.60;99.90
19263;DHT22;9765;52.354;20.884;2022-07-04T10:59:16;30.50;99.90
19263;DHT22;9765;52.354;20.884;2022-07-04T11:01:48;30.40;99.90
19263;DHT22;9765;52.354;20.884;2022-07-04T11:04:47;30.30;99.90
19263;DHT22;9765;52.354;20.884;2022-07-04T11:07:15;30.30;99.90
19263;DHT22;9765;52.354;20.884;2022-07-04T11:09:42;30.40;99.90
19263;DHT22;9765;52.354;20.884;2022-07-04T11:12:09;30.40;99.90
19263;DHT22;9765;52.354;20.884;2022-07-04T11:14:39;30.30;99.90
19263;DHT22;9765;52.354;20.884;2022-07-04T11:17:07;30.20;99.90
19263;DHT22;9765;52.354;20.884;2022-07-04T11:19:34;30.20;99.90
19263;DHT22;9765;52.354;20.884;2022-07-04T11:22:03;30.40;99.90
19263;DHT22;9765;52.354;20.884;2022-07-04T11:24:31;30.20;99.90
19263;DHT22;9765;52.354;20.884;2022-07-04T11:26:58;30.30;99.90
19263;DHT22;9765;52.354;20.884;2022-07-04T11:29:26;30.30;99.90
19263;DHT22;9765;52.354;20.884;2022-07-04T11:31:53;30.30;99.90
19263;DHT22;9765;52.354;20.884;2022-07-04T11:34:20;30.30;99.90
19263;DHT22;9765;52.354;20.884;2022-07-04T11:36:48;30.10;99.90
19263;DHT22;9765;52.354;20.884;2022-07-04T11:39:18;30.10;99.90
19263;DHT22;9765;52.354;20.884;2022-07-04T11:41:48;29.90;99.90
19263;DHT22;9765;52.354;20.884;2022-07-04T11:44:35;29.80;99.90
19263;DHT22;9765;52.354;20.884;2022-07-04T11:47:33;29.90;99.90
19263;DHT22;9765;52.354;20.884;2022-07-04T11:50:01;29.90;99.90
19263;DHT22;9765;52.354;20.884;2022-07-04T11:52:30;30.00;99.90
19263;DHT22;9765;52.354;20.884;2022-07-04T11:55:01;30.00;99.90
19263;DHT22;9765;52.354;20.884;2022-07-04T11:57:28;29.70;99.90
19263;DHT22;9765;52.354;20.884;2022-07-04T11:59:58;29.80;99.90
19263;DHT22;9765;52.354;20.884;2022-07-04T12:02:26;29.70;99.90
19263;DHT22;9765;52.354;20.884;2022-07-04T12:04:53;29.60;99.90
19263;DHT22;9765;52.354;20.884;2022-07-04T12:07:20;29.50;99.90
19263;DHT22;9765;52.354;20.884;2022-07-04T12:09:48;29.50;99.90
19263;DHT22;9765;52.354;20.884;2022-07-04T12:12:17;29.60;99.90
19263;DHT22;9765;52.354;20.884;2022-07-04T12:14:58;29.90;99.90
19263;DHT22;9765;52.354;20.884;2022-07-04T12:17:30;30.10;99.90
19263;DHT22;9765;52.354;20.884;2022-07-04T12:19:58;30.10;99.90
19263;DHT22;9765;52.354;20.884;2022-07-04T12:22:36;29.90;99.90
19263;DHT22;9765;52.354;20.884;2022-07-04T12:25:05;30.00;99.90
19263;DHT22;9765;52.354;20.884;2022-07-04T12:27:34;29.90;99.90
19263;DHT22;9765;52.354;20.884;2022-07-04T12:30:02;29.90;99.90
19263;DHT22;9765;52.354;20.884;2022-07-04T12:32:47;29.90;99.90
19263;DHT22;9765;52.354;20.884;2022-07-04T12:35:34;30.10;99.90
19263;DHT22;9765;52.354;20.884;2022-07-04T12:38:05;30.30;99.90
19263;DHT22;9765;52.354;20.884;2022-07-04T12:40:32;30.50;99.90
19263;DHT22;9765;52.354;20.884;2022-07-04T12:43:01;30.60;99.90
19263;DHT22;9765;52.354;20.884;2022-07-04T12:45:44;30.50;99.90
19263;DHT22;9765;52.354;20.884;2022-07-04T12:48:18;30.50;99.90
19263;DHT22;9765;52.354;20.884;2022-07-04T12:50:45;30.60;99.90
19263;DHT22;9765;52.354;20.884;2022-07-04T12:53:12;30.50;99.90
19263;DHT22;9765;52.354;20.884;2022-07-04T12:55:41;30.50;99.90
19263;DHT22;9765;52.354;20.884;2022-07-04T12:58:10;30.50;99.90
19263;DHT22;9765;52.354;20.884;2022-07-04T13:00:37;30.50;99.90
19263;DHT22;9765;52.354;20.884;2022-07-04T13:03:04;30.60;99.90
19263;DHT22;9765;52.354;20.884;2022-07-04T13:05:32;30.60;99.90
19263;DHT22;9765;52.354;20.884;2022-07-04T13:07:59;30.50;99.30
19263;DHT22;9765;52.354;20.884;2022-07-04T13:10:26;30.60;98.70
19263;DHT22;9765;52.354;20.884;2022-07-04T13:12:53;30.60;99.90
19263;DHT22;9765;52.354;20.884;2022-07-04T13:15:21;30.80;99.90
19263;DHT22;9765;52.354;20.884;2022-07-04T13:17:47;30.60;99.80
19263;DHT22;9765;52.354;20.884;2022-07-04T13:20:14;30.60;98.30
19263;DHT22;9765;52.354;20.884;2022-07-04T13:22:41;30.40;99.10
19263;DHT22;9765;52.354;20.884;2022-07-04T13:25:07;30.50;99.90
19263;DHT22;9765;52.354;20.884;2022-07-04T13:27:34;30.50;98.40
19263;DHT22;9765;52.354;20.884;2022-07-04T13:30:01;30.50;99.40
19263;DHT22;9765;52.354;20.884;2022-07-04T13:32:30;30.60;99.90
19263;DHT22;9765;52.354;20.884;2022-07-04T13:34:56;30.70;98.60
19263;DHT22;9765;52.354;20.884;2022-07-04T13:37:23;30.60;99.90
19263;DHT22;9765;52.354;20.884;2022-07-04T13:39:50;30.60;99.90
19263;DHT22;9765;52.354;20.884;2022-07-04T13:42:17;30.80;99.30
19263;DHT22;9765;52.354;20.884;2022-07-04T13:45:05;30.90;99.70
19263;DHT22;9765;52.354;20.884;2022-07-04T13:47:33;31.20;99.90
19263;DHT22;9765;52.354;20.884;2022-07-04T13:50:00;31.50;99.80
19263;DHT22;9765;52.354;20.884;2022-07-04T13:52:27;31.30;98.40
19263;DHT22;9765;52.354;20.884;2022-07-04T13:54:54;31.00;98.20
19263;DHT22;9765;52.354;20.884;2022-07-04T13:57:20;31.10;98.90
19263;DHT22;9765;52.354;20.884;2022-07-04T13:59:47;31.00;98.10
19263;DHT22;9765;52.354;20.884;2022-07-04T14:02:14;30.90;98.40
19263;DHT22;9765;52.354;20.884;2022-07-04T14:04:42;30.80;99.30
19263;DHT22;9765;52.354;20.884;2022-07-04T14:07:08;30.70;99.90
19263;DHT22;9765;52.354;20.884;2022-07-04T14:09:36;30.80;99.90
19263;DHT22;9765;52.354;20.884;2022-07-04T14:12:03;30.90;99.10
19263;DHT22;9765;52.354;20.884;2022-07-04T14:14:30;30.90;98.00
19263;DHT22;9765;52.354;20.884;2022-07-04T14:16:57;30.80;99.90
19263;DHT22;9765;52.354;20.884;2022-07-04T14:19:23;30.80;98.70
19263;DHT22;9765;52.354;20.884;2022-07-04T14:21:51;30.80;99.90
19263;DHT22;9765;52.354;20.884;2022-07-04T14:24:18;30.90;99.90
19263;DHT22;9765;52.354;20.884;2022-07-04T14:26:45;30.90;99.90
19263;DHT22;9765;52.354;20.884;2022-07-04T14:29:11;30.70;99.60
19263;DHT22;9765;52.354;20.884;2022-07-04T14:31:39;30.50;98.50
19263;DHT22;9765;52.354;20.884;2022-07-04T14:34:06;30.30;98.90
19263;DHT22;9765;52.354;20.884;2022-07-04T14:36:35;30.20;99.90
19263;DHT22;9765;52.354;20.884;2022-07-04T14:39:03;29.90;99.90
19263;DHT22;9765;52.354;20.884;2022-07-04T14:41:30;29.90;98.70
19263;DHT22;9765;52.354;20.884;2022-07-04T14:43:57;29.50;98.80
19263;DHT22;9765;52.354;20.884;2022-07-04T14:46:23;29.50;99.90
19263;DHT22;9765;52.354;20.884;2022-07-04T14:48:50;29.70;99.90
19263;DHT22;9765;52.354;20.884;2022-07-04T14:51:17;29.80;99.90
19263;DHT22;9765;52.354;20.884;2022-07-04T14:53:43;29.90;99.40
19263;DHT22;9765;52.354;20.884;2022-07-04T14:56:11;29.70;99.90
19263;DHT22;9765;52.354;20.884;2022-07-04T14:58:38;29.70;99.90
19263;DHT22;9765;52.354;20.884;2022-07-04T15:01:04;29.70;99.90
19263;DHT22;9765;52.354;20.884;2022-07-04T15:03:31;29.60;99.90
19263;DHT22;9765;52.354;20.884;2022-07-04T15:05:58;29.40;99.90
19263;DHT22;9765;52.354;20.884;2022-07-04T15:08:25;29.50;99.90
19263;DHT22;9765;52.354;20.884;2022-07-04T15:10:52;29.10;99.90
19263;DHT22;9765;52.354;20.884;2022-07-04T15:13:20;29.50;99.90
19263;DHT22;9765;52.354;20.884;2022-07-04T15:15:46;29.10;99.90
19263;DHT22;9765;52.354;20.884;2022-07-04T15:18:13;29.00;99.90
19263;DHT22;9765;52.354;20.884;2022-07-04T15:20:40;29.20;99.90
19263;DHT22;9765;52.354;20.884;2022-07-04T15:23:24;29.30;99.90
19263;DHT22;9765;52.354;20.884;2022-07-04T15:26:09;29.50;99.90
19263;DHT22;9765;52.354;20.884;2022-07-04T15:28:37;29.70;99.90
19263;DHT22;9765;52.354;20.884;2022-07-04T15:31:03;29.80;99.90
19263;DHT22;9765;52.354;20.884;2022-07-04T15:33:30;30.00;99.90
19263;DHT22;9765;52.354;20.884;2022-07-04T15:35:57;30.20;99.90
19263;DHT22;9765;52.354;20.884;2022-07-04T15:38:24;30.00;99.90
19263;DHT22;9765;52.354;20.884;2022-07-04T15:40:51;29.90;99.90
19263;DHT22;9765;52.354;20.884;2022-07-04T15:43:17;29.80;99.90
19263;DHT22;9765;52.354;20.884;2022-07-04T15:45:45;29.70;99.90
19263;DHT22;9765;52.354;20.884;2022-07-04T15:48:12;29.60;99.90
19263;DHT22;9765;52.354;20.884;2022-07-04T15:50:39;29.60;99.90
19263;DHT22;9765;52.354;20.884;2022-07-04T15:53:06;29.70;99.90
19263;DHT22;9765;52.354;20.884;2022-07-04T15:55:32;29.70;99.90
19263;DHT22;9765;52.354;20.884;2022-07-04T15:57:59;29.80;99.90
19263;DHT22;9765;52.354;20.884;2022-07-04T16:00:26;29.90;99.90
19263;DHT22;9765;52.354;20.884;2022-07-04T16:02:54;30.00;99.90
19263;DHT22;9765;52.354;20.884;2022-07-04T16:05:20;29.90;99.90
19263;DHT22;9765;52.354;20.884;2022-07-04T16:07:47;29.90;99.40
19263;DHT22;9765;52.354;20.884;2022-07-04T16:10:14;29.90;99.90
19263;DHT22;9765;52.354;20.884;2022-07-04T16:12:41;29.80;99.90
19263;DHT22;9765;52.354;20.884;2022-07-04T16:15:08;29.80;99.90
19263;DHT22;9765;52.354;20.884;2022-07-04T16:17:35;29.80;99.90
19263;DHT22;9765;52.354;20.884;2022-07-04T16:20:05;29.80;99.90
19263;DHT22;9765;52.354;20.884;2022-07-04T16:22:33;29.90;99.90
19263;DHT22;9765;52.354;20.884;2022-07-04T16:24:59;29.90;99.90
19263;DHT22;9765;52.354;20.884;2022-07-04T16:27:26;29.70;99.90
19263;DHT22;9765;52.354;20.884;2022-07-04T16:29:53;29.70;99.90
19263;DHT22;9765;52.354;20.884;2022-07-04T16:32:20;29.70;99.90
19263;DHT22;9765;52.354;20.884;2022-07-04T16:34:46;29.60;99.90
19263;DHT22;9765;52.354;20.884;2022-07-04T16:37:14;29.60;99.90
19263;DHT22;9765;52.354;20.884;2022-07-04T16:39:41;29.70;99.90
19263;DHT22;9765;52.354;20.884;2022-07-04T16:42:08;29.50;99.90
19263;DHT22;9765;52.354;20.884;2022-07-04T16:44:34;29.40;99.90
19263;DHT22;9765;52.354;20.884;2022-07-04T16:47:01;29.40;99.90
19263;DHT22;9765;52.354;20.884;2022-07-04T16:49:28;29.40;99.90
19263;DHT22;9765;52.354;20.884;2022-07-04T16:51:54;29.40;99.90
19263;DHT22;9765;52.354;20.884;2022-07-04T16:54:22;29.30;99.90
19263;DHT22;9765;52.354;20.884;2022-07-04T16:56:49;29.20;99.90
19263;DHT22;9765;52.354;20.884;2022-07-04T16:59:16;29.10;99.90
19263;DHT22;9765;52.354;20.884;2022-07-04T17:01:42;28.90;99.90
19263;DHT22;9765;52.354;20.884;2022-07-04T17:04:09;29.00;99.90
19263;DHT22;9765;52.354;20.884;2022-07-04T17:06:36;29.00;99.90
19263;DHT22;9765;52.354;20.884;2022-07-04T17:09:03;29.00;99.90
19263;DHT22;9765;52.354;20.884;2022-07-04T17:11:31;29.00;99.90
19263;DHT22;9765;52.354;20.884;2022-07-04T17:13:58;28.90;99.90
19263;DHT22;9765;52.354;20.884;2022-07-04T17:16:26;28.80;99.90
19263;DHT22;9765;52.354;20.884;2022-07-04T17:18:53;28.50;99.90
19263;DHT22;9765;52.354;20.884;2022-07-04T17:21:20;28.30;99.90
19263;DHT22;9765;52.354;20.884;2022-07-04T17:23:47;28.20;99.90
19263;DHT22;9765;52.354;20.884;2022-07-04T17:26:14;27.90;99.90
19263;DHT22;9765;52.354;20.884;2022-07-04T17:28:42;27.90;99.90
19263;DHT22;9765;52.354;20.884;2022-07-04T17:31:09;27.70;99.90
19263;DHT22;9765;52.354;20.884;2022-07-04T17:33:35;27.60;99.90
19263;DHT22;9765;52.354;20.884;2022-07-04T17:36:02;27.50;99.90
19263;DHT22;9765;52.354;20.884;2022-07-04T17:38:29;27.40;99.90
19263;DHT22;9765;52.354;20.884;2022-07-04T17:40:56;27.30;99.90
19263;DHT22;9765;52.354;20.884;2022-07-04T17:43:42;27.00;99.90
19263;DHT22;9765;52.354;20.884;2022-07-04T17:46:08;26.70;99.90
19263;DHT22;9765;52.354;20.884;2022-07-04T17:48:35;26.50;99.90
19263;DHT22;9765;52.354;20.884;2022-07-04T17:51:02;26.50;99.90
19263;DHT22;9765;52.354;20.884;2022-07-04T17:53:29;26.40;99.90
19263;DHT22;9765;52.354;20.884;2022-07-04T17:55:55;26.50;99.90
19263;DHT22;9765;52.354;20.884;2022-07-04T17:58:22;26.40;99.90
19263;DHT22;9765;52.354;20.884;2022-07-04T18:00:50;26.40;99.90
19263;DHT22;9765;52.354;20.884;2022-07-04T18:03:17;26.30;99.90
19263;DHT22;9765;52.354;20.884;2022-07-04T18:05:43;26.30;99.90
19263;DHT22;9765;52.354;20.884;2022-07-04T18:08:10;26.20;99.90
19263;DHT22;9765;52.354;20.884;2022-07-04T18:10:37;26.00;99.90
19263;DHT22;9765;52.354;20.884;2022-07-04T18:13:03;25.80;99.90
19263;DHT22;9765;52.354;20.884;2022-07-04T18:15:30;25.60;99.90
19263;DHT22;9765;52.354;20.884;2022-07-04T18:17:58;25.60;99.90
19263;DHT22;9765;52.354;20.884;2022-07-04T18:20:25;25.70;99.90
19263;DHT22;9765;52.354;20.884;2022-07-04T18:22:52;25.70;99.90
19263;DHT22;9765;52.354;20.884;2022-07-04T18:25:22;25.70;99.90
19263;DHT22;9765;52.354;20.884;2022-07-04T18:27:49;25.70;99.90
19263;DHT22;9765;52.354;20.884;2022-07-04T18:30:15;25.60;99.90
19263;DHT22;9765;52.354;20.884;2022-07-04T18:32:42;25.60;99.90
19263;DHT22;9765;52.354;20.884;2022-07-04T18:35:11;25.50;99.90
